Bischofshofen, Autriche

05:41 CEST le 27 mai 2015 (GMT +0200)
Muehlach am Hochkoenig | | Change Station
CLOSE
Current Station
Stations météorologiques personnelles
Location: Mühlbach Am Hochkönig, SALZBURG
Altitude: 2785 ft
Stations météo à proximité

Alt. 2785 ft 47.38 °N, 13.13 °E | Updated 14 seconds ago

Mostly Cloudy
Nuageux
42.6 ° F
Paraît 43 ° F
N
0.0
Vent Variable Vent de NE
Gusts 0.0 mph

Aujourd'hui
Haut(e) -- | Bas -- ° F
--% Risque de précip.
Hier
Haut(e) -- | Bas -- ° F
Precip. -- pouce
5:18 AM 8:50 PM
Lune gibbeuse croissante, 63% visible
Pression 30.15 pouce
Visibilité 6.2 Miles terrestres
Nuages Peu 3600 ft
Nuages épars 4000 ft
Nuageux 7000 ft
Refroidissement éolien 43 ° F
Point de rosée 41 ° F
Humidité 95%
Précipitations 0.09 pouce
Profondeur de la couche neigeuse Non disponible.
UV 0.0 sur 12
Pollen Non disponible.
Qualité de l'air Non disponible.
Flu Activity Non disponible.
METAR LOWS 270320Z AUTO 29003KT 240V350 9999 FEW036 SCT040 BKN070 08/07 Q1021

More Conditions Fewer Conditions

Pression 30.15 pouce
Visibilité 6.2 Miles terrestres
Nuages Peu 3600 ft
Nuages épars 4000 ft
Nuageux 7000 ft
Refroidissement éolien 43 ° F
Point de rosée 41 ° F
Humidité 95%
Précipitations 0.09 pouce
Profondeur de la couche neigeuse Non disponible.
UV 0.0 sur 12
Pollen Non disponible.
Qualité de l'air Non disponible.
Flu Activity Non disponible.
METAR LOWS 270320Z AUTO 29003KT 240V350 9999 FEW036 SCT040 BKN070 08/07 Q1021

More Conditions Fewer Conditions

10-Day Weather Forecast

Almanac

Astronomie

May. 27, 2015 Lever Coucher
Temps réel
Crépuscule civil
Crépuscule nautique
Crépuscule astronomique
Lune
Durée de lumière visible
Longueur du jour
Tomorrow will be .
, % of the Moon is Illuminated

Extrêmes aujourd'hui

Country Highs Country Lows

Community

WunderPhotos

Upload Photos

1,824,600 Photos téléchargées !

WunderBlogs® & News

Nearby

Qualité de l'air

  Qualité de l'air Indice de la qualité de l'air Polluant
Not available.

Épaisseur de neige

Station Depth Altitude

Activité sismique

Ville Distance Mag. Time & Date
Minimum magnitude displayed is 2.5.

Températures des eaux côtières

Lieu Température

Stations

Stations météo à proximité

Emplacement de la station Température Refroidissement éolien Point de rosée Humidité Vent Precip. Alt. Mise à jour Type